createdAt,value
2023-04-11T00:01:00.008Z,36.50
2023-04-11T00:03:28.971Z,40.08
2023-04-11T00:05:57.404Z,42.55
2023-04-11T00:08:25.598Z,40.40
2023-04-11T00:10:53.792Z,33.08
2023-04-11T00:13:23.992Z,34.67
2023-04-11T00:15:55.433Z,34.67
2023-04-11T00:18:25.965Z,30.60
2023-04-11T00:20:54.012Z,38.70
2023-04-11T00:23:22.110Z,40.40
2023-04-11T00:25:50.879Z,46.13
2023-04-11T00:28:18.928Z,34.58
2023-04-11T00:30:47.361Z,40.67
2023-04-11T00:33:16.735Z,33.67
2023-04-11T00:35:46.160Z,40.28
2023-04-11T00:38:14.249Z,35.55
2023-04-11T00:40:42.699Z,34.85
2023-04-11T00:43:11.578Z,31.52
2023-04-11T00:45:40.074Z,39.40
2023-04-11T00:48:08.680Z,43.13
2023-04-11T00:50:42.113Z,42.00
2023-04-11T00:53:13.256Z,34.47
2023-04-11T00:55:41.558Z,44.30
2023-04-11T00:58:09.923Z,36.45
2023-04-11T01:00:38.878Z,36.78
2023-04-11T01:03:08.308Z,40.97
2023-04-11T01:05:37.321Z,40.35
2023-04-11T01:08:06.303Z,39.50
2023-04-11T01:10:35.930Z,43.55
2023-04-11T01:13:04.267Z,49.03
2023-04-11T01:15:32.672Z,41.65
2023-04-11T01:18:02.248Z,45.85
2023-04-11T01:20:31.711Z,42.28
2023-04-11T01:23:01.906Z,53.90
2023-04-11T01:25:31.519Z,54.13
2023-04-11T01:27:59.916Z,59.70
2023-04-11T01:30:28.242Z,51.25
2023-04-11T01:32:56.361Z,55.70
2023-04-11T01:35:24.986Z,59.33
2023-04-11T01:37:53.576Z,42.05
2023-04-11T01:40:23.681Z,23.42
2023-04-11T01:42:54.648Z,20.02
2023-04-11T01:45:23.561Z,20.25
2023-04-11T01:47:54.740Z,18.30
2023-04-11T01:53:09.620Z,13.90
2023-04-11T01:55:37.699Z,13.40
2023-04-11T01:58:07.303Z,10.10
2023-04-11T02:00:37.076Z,10.70
2023-04-11T02:03:05.584Z,12.55
2023-04-11T02:05:34.044Z,12.40
2023-04-11T02:08:02.504Z,13.75
2023-04-11T02:10:30.571Z,12.82
2023-04-11T02:12:59.254Z,9.77
2023-04-11T02:15:29.130Z,11.77
2023-04-11T02:18:00.278Z,10.07
2023-04-11T02:20:28.937Z,9.77
2023-04-11T02:22:58.766Z,11.60
2023-04-11T02:25:26.842Z,13.73
2023-04-11T02:27:55.054Z,11.00
2023-04-11T02:30:25.310Z,13.02
2023-04-11T02:32:54.744Z,12.75
2023-04-11T02:35:22.816Z,7.22
2023-04-11T02:37:51.019Z,11.82
2023-04-11T02:40:19.207Z,19.38
2023-04-11T02:42:47.233Z,14.13
2023-04-11T02:45:17.805Z,11.73
2023-04-11T02:47:46.028Z,9.65
2023-04-11T02:50:15.523Z,11.45
2023-04-11T02:52:49.542Z,10.50
2023-04-11T02:55:23.185Z,15.90
2023-04-11T02:57:52.462Z,13.90
2023-04-11T03:00:22.464Z,17.38
2023-04-11T03:02:57.549Z,14.43
2023-04-11T03:05:27.907Z,9.73
2023-04-11T03:07:57.912Z,18.05
2023-04-11T03:10:28.272Z,17.05
2023-04-11T03:12:56.966Z,23.10
2023-04-11T03:15:25.375Z,13.98
2023-04-11T03:17:53.459Z,19.88
2023-04-11T03:20:22.129Z,19.13
2023-04-11T03:22:55.043Z,17.90
2023-04-11T03:25:24.295Z,16.95
2023-04-11T03:27:53.484Z,17.88
2023-04-11T03:30:21.797Z,19.48
2023-04-11T03:32:49.984Z,21.73
2023-04-11T03:35:20.437Z,14.30
2023-04-11T03:37:51.156Z,25.67
2023-04-11T03:40:20.568Z,25.15
2023-04-11T03:42:58.237Z,24.77
2023-04-11T03:45:29.812Z,38.47
2023-04-11T03:48:00.848Z,33.60
2023-04-11T03:50:37.806Z,23.75
2023-04-11T03:53:07.329Z,31.45
2023-04-11T03:55:36.925Z,28.02
2023-04-11T03:58:07.729Z,30.55
2023-04-11T04:00:36.410Z,32.97
2023-04-11T04:03:09.472Z,29.25
2023-04-11T04:05:39.406Z,21.83
2023-04-11T04:08:07.911Z,38.83
2023-04-11T04:10:49.174Z,34.63
2023-04-11T04:13:17.713Z,29.02
2023-04-11T04:15:52.650Z,42.63
2023-04-11T04:18:25.274Z,37.73
2023-04-11T04:20:53.661Z,38.42
2023-04-11T04:23:23.893Z,32.92
2023-04-11T04:26:13.305Z,34.80
2023-04-11T04:28:47.313Z,38.88
2023-04-11T04:31:25.806Z,35.85
2023-04-11T04:34:08.442Z,49.15
2023-04-11T04:36:46.385Z,38.97
2023-04-11T04:39:17.810Z,53.53
2023-04-11T04:41:58.347Z,56.15
2023-04-11T04:44:31.716Z,45.88
2023-04-11T04:47:05.601Z,46.65
2023-04-11T04:49:33.706Z,45.25
2023-04-11T04:52:02.210Z,52.58
2023-04-11T04:54:31.489Z,63.75
2023-04-11T04:57:01.345Z,50.90
2023-04-11T04:59:29.748Z,71.32
2023-04-11T05:02:06.348Z,74.10
2023-04-11T05:04:35.381Z,75.95
2023-04-11T05:07:04.436Z,71.47
2023-04-11T05:09:33.698Z,68.45
2023-04-11T05:12:13.661Z,58.80
2023-04-11T05:14:45.797Z,42.70
2023-04-11T05:17:13.885Z,43.65
2023-04-11T05:19:42.128Z,48.00
2023-04-11T05:22:10.821Z,45.67
2023-04-11T05:24:43.364Z,64.68
2023-04-11T05:27:15.047Z,52.92
2023-04-11T05:29:43.849Z,57.05
2023-04-11T05:32:12.760Z,42.85
2023-04-11T05:34:52.678Z,46.22
2023-04-11T05:37:26.204Z,31.73
2023-04-11T05:39:56.450Z,36.17
2023-04-11T05:42:25.877Z,44.08
2023-04-11T05:44:54.168Z,51.83
2023-04-11T05:47:23.347Z,45.78
2023-04-11T05:49:51.594Z,46.88
2023-04-11T05:52:19.632Z,45.38
2023-04-11T05:54:48.077Z,46.22
2023-04-11T05:57:17.419Z,57.08
2023-04-11T05:59:50.037Z,56.35
2023-04-11T06:02:18.280Z,48.13
2023-04-11T06:04:46.978Z,48.35
2023-04-11T06:07:15.615Z,49.72
2023-04-11T06:09:44.184Z,46.15
2023-04-11T06:12:12.460Z,48.20
2023-04-11T06:14:41.008Z,54.30
2023-04-11T06:17:10.513Z,44.22
2023-04-11T06:19:38.721Z,54.28
2023-04-11T06:22:06.944Z,67.30
2023-04-11T06:24:38.812Z,52.80
2023-04-11T06:27:10.178Z,83.55
2023-04-11T06:29:38.421Z,81.38
2023-04-11T06:32:06.995Z,88.63
2023-04-11T06:34:36.786Z,91.53
2023-04-11T06:37:04.858Z,104.72
2023-04-11T06:39:33.474Z,110.55
2023-04-11T06:42:02.160Z,96.35
2023-04-11T06:44:33.109Z,133.15
2023-04-11T06:47:01.445Z,123.47
2023-04-11T06:49:30.013Z,109.07
2023-04-11T06:51:59.500Z,110.30
2023-04-11T06:54:27.770Z,123.32
2023-04-11T06:56:57.372Z,98.07
2023-04-11T06:59:25.657Z,113.45
2023-04-11T07:01:53.934Z,112.20
2023-04-11T07:04:22.590Z,119.93
2023-04-11T07:06:51.121Z,88.97
2023-04-11T07:09:20.775Z,97.75
2023-04-11T07:11:49.889Z,95.15
2023-04-11T07:14:18.237Z,111.03
2023-04-11T07:16:46.468Z,98.95
2023-04-11T07:19:14.889Z,101.47
2023-04-11T07:21:42.961Z,98.20
2023-04-11T07:24:13.166Z,95.65
2023-04-11T07:26:43.207Z,81.38
2023-04-11T07:29:13.936Z,83.50
2023-04-11T07:31:45.140Z,81.47
2023-04-11T07:34:13.294Z,90.65
2023-04-11T07:36:41.847Z,75.35
2023-04-11T07:39:12.385Z,65.85
2023-04-11T07:41:41.872Z,67.68
2023-04-11T07:44:09.917Z,60.58
2023-04-11T07:46:38.320Z,51.92
2023-04-11T07:49:06.436Z,56.35
2023-04-11T07:51:34.634Z,54.17
2023-04-11T07:54:02.935Z,57.45
2023-04-11T07:56:31.134Z,44.85
2023-04-11T07:59:01.246Z,52.30
2023-04-11T08:01:29.766Z,50.13
2023-04-11T08:03:58.466Z,55.80
2023-04-11T08:06:28.884Z,54.88
2023-04-11T08:09:01.547Z,58.13
2023-04-11T08:11:29.579Z,58.03
2023-04-11T08:13:57.961Z,44.45
2023-04-11T08:16:27.821Z,41.45
2023-04-11T08:18:57.171Z,43.72
2023-04-11T08:21:25.427Z,34.22
2023-04-11T08:23:53.828Z,32.65
2023-04-11T08:26:21.953Z,32.05
2023-04-11T08:28:51.142Z,23.70
2023-04-11T08:31:19.786Z,19.90
2023-04-11T08:33:49.319Z,22.73
2023-04-11T08:36:17.531Z,23.23
2023-04-11T08:38:45.982Z,22.45
2023-04-11T08:41:14.451Z,22.27
2023-04-11T08:43:44.193Z,23.98
2023-04-11T08:46:13.855Z,22.75
2023-04-11T08:48:42.033Z,17.92
2023-04-11T08:51:12.493Z,8.30
2023-04-11T08:53:41.829Z,12.57
2023-04-11T08:56:16.736Z,14.30
2023-04-11T08:58:45.380Z,10.07
2023-04-11T09:01:31.910Z,9.52
2023-04-11T09:04:01.638Z,6.30
2023-04-11T09:06:32.599Z,18.98
2023-04-11T09:09:08.510Z,14.32
2023-04-11T09:11:52.477Z,14.63
2023-04-11T09:14:26.288Z,11.30
2023-04-11T09:17:00.161Z,3.70
2023-04-11T09:19:29.964Z,3.75
2023-04-11T09:22:00.886Z,4.32
2023-04-11T09:24:32.042Z,11.15
2023-04-11T09:27:08.741Z,9.32
2023-04-11T09:29:39.211Z,11.30
2023-04-11T09:32:07.877Z,13.38
2023-04-11T09:34:39.144Z,12.93
2023-04-11T09:37:11.609Z,11.20
2023-04-11T09:39:39.698Z,5.85
2023-04-11T09:42:25.686Z,7.18
2023-04-11T09:44:54.547Z,5.63
2023-04-11T09:47:22.816Z,7.40
2023-04-11T09:49:52.926Z,4.03
2023-04-11T09:52:22.912Z,3.88
2023-04-11T09:54:53.022Z,6.15
2023-04-11T09:57:23.819Z,4.85
2023-04-11T09:59:54.718Z,6.65
2023-04-11T10:02:22.934Z,8.55
2023-04-11T10:04:54.680Z,5.65
2023-04-11T10:07:25.200Z,3.63
2023-04-11T10:09:53.411Z,5.57
2023-04-11T10:12:35.427Z,5.72
2023-04-11T10:15:08.506Z,5.47
2023-04-11T10:17:37.814Z,4.85
2023-04-11T10:20:43.579Z,6.93
2023-04-11T10:23:14.107Z,6.93
2023-04-11T10:25:53.053Z,6.93
2023-04-11T10:28:32.439Z,5.78
2023-04-11T10:31:05.858Z,6.10
2023-04-11T10:33:36.149Z,1.67
2023-04-11T10:36:06.353Z,2.53
2023-04-11T10:38:49.871Z,4.78
2023-04-11T10:41:28.284Z,4.45
2023-04-11T10:44:18.597Z,2.60
2023-04-11T10:46:49.310Z,3.50
2023-04-11T10:49:38.318Z,2.85
2023-04-11T10:52:20.862Z,5.63
2023-04-11T10:54:51.427Z,2.72
2023-04-11T10:57:19.885Z,2.00
2023-04-11T11:00:01.758Z,2.05
2023-04-11T11:02:41.178Z,3.80
2023-04-11T11:05:27.778Z,2.55
2023-04-11T11:07:55.827Z,5.05
2023-04-11T11:10:46.400Z,3.40
2023-04-11T11:13:16.938Z,5.07
2023-04-11T11:15:49.474Z,2.55
2023-04-11T11:18:19.017Z,3.25
2023-04-11T11:20:47.041Z,3.80
2023-04-11T11:23:15.609Z,5.00
2023-04-11T11:25:53.536Z,3.30
2023-04-11T11:28:22.515Z,3.60
2023-04-11T11:30:55.752Z,4.72
2023-04-11T11:33:26.704Z,4.00
2023-04-11T11:35:57.684Z,5.45
2023-04-11T11:38:28.851Z,4.90
2023-04-11T11:40:59.844Z,5.88
2023-04-11T11:43:28.617Z,3.40
2023-04-11T11:46:15.399Z,3.05
2023-04-11T11:48:44.885Z,5.13
2023-04-11T11:51:12.925Z,3.22
2023-04-11T11:53:41.617Z,2.08
2023-04-11T11:56:16.439Z,4.18
2023-04-11T11:58:45.788Z,3.45
2023-04-11T12:01:17.293Z,2.83
2023-04-11T12:03:48.410Z,4.25
2023-04-11T12:06:17.397Z,5.18
2023-04-11T12:08:50.218Z,3.83
2023-04-11T12:11:20.103Z,4.32
2023-04-11T12:13:54.311Z,5.70
2023-04-11T12:16:25.917Z,2.85
2023-04-11T12:18:54.201Z,5.95
2023-04-11T12:21:22.313Z,3.30
2023-04-11T12:23:50.809Z,4.20
2023-04-11T12:26:22.628Z,4.65
2023-04-11T12:28:51.406Z,4.22
2023-04-11T12:31:20.499Z,3.72
2023-04-11T12:33:48.800Z,3.58
2023-04-11T12:36:17.053Z,1.95
2023-04-11T12:38:45.108Z,1.38
2023-04-11T12:41:31.035Z,3.00
2023-04-11T12:44:02.604Z,1.25
2023-04-11T12:46:30.913Z,3.55
2023-04-11T12:48:59.282Z,1.88
2023-04-11T12:51:27.690Z,2.35
2023-04-11T12:53:55.765Z,4.50
2023-04-11T12:56:23.800Z,2.00
2023-04-11T12:58:52.286Z,3.45
2023-04-11T13:01:23.598Z,4.15
2023-04-11T13:03:52.107Z,4.50
2023-04-11T13:06:20.481Z,4.45
2023-04-11T13:08:48.637Z,1.35
2023-04-11T13:11:16.645Z,1.88
2023-04-11T13:14:03.349Z,2.38
2023-04-11T13:16:33.944Z,1.55
2023-04-11T13:19:02.290Z,3.30
2023-04-11T13:21:31.748Z,3.28
2023-04-11T13:23:59.829Z,3.03
2023-04-11T13:26:28.492Z,4.82
2023-04-11T13:28:57.174Z,4.35
2023-04-11T13:31:26.684Z,5.95
2023-04-11T13:33:58.133Z,3.58
2023-04-11T13:36:27.169Z,2.70
2023-04-11T13:38:56.209Z,2.88
2023-04-11T13:41:24.942Z,2.28
2023-04-11T13:43:53.737Z,2.25
2023-04-11T13:46:23.170Z,3.45
2023-04-11T13:48:52.023Z,2.67
2023-04-11T13:51:21.481Z,2.55
2023-04-11T13:53:49.480Z,2.67
2023-04-11T13:56:17.940Z,3.03
2023-04-11T13:58:46.106Z,3.60
2023-04-11T14:01:15.383Z,3.42
2023-04-11T14:03:44.872Z,3.85
2023-04-11T14:06:13.026Z,1.85
2023-04-11T14:08:42.472Z,1.88
2023-04-11T14:11:10.875Z,4.05
2023-04-11T14:13:38.870Z,5.60
2023-04-11T14:16:09.277Z,2.10
2023-04-11T14:18:38.162Z,2.53
2023-04-11T14:21:07.996Z,6.32
2023-04-11T14:23:36.736Z,5.55
2023-04-11T14:26:06.865Z,5.72
2023-04-11T14:28:35.013Z,3.90
2023-04-11T14:31:03.195Z,7.15
2023-04-11T14:33:31.786Z,7.20
2023-04-11T14:35:59.876Z,5.75
2023-04-11T14:38:28.394Z,3.15
2023-04-11T14:40:56.900Z,4.80
2023-04-11T14:43:26.580Z,4.55
2023-04-11T14:45:57.535Z,5.70
2023-04-11T14:48:26.725Z,6.68
2023-04-11T14:50:55.553Z,2.88
2023-04-11T14:53:24.151Z,5.57
2023-04-11T14:55:52.190Z,4.22
2023-04-11T14:58:20.407Z,4.75
2023-04-11T15:00:49.868Z,1.80
2023-04-11T15:03:18.210Z,4.15
2023-04-11T15:05:46.553Z,4.50
2023-04-11T15:08:14.982Z,3.75
2023-04-11T15:10:43.059Z,2.95
2023-04-11T15:13:11.955Z,8.02
2023-04-11T15:15:40.243Z,7.68
2023-04-11T15:18:24.234Z,5.18
2023-04-11T15:20:53.565Z,7.95
2023-04-11T15:23:22.133Z,8.25
2023-04-11T15:25:54.747Z,9.00
2023-04-11T15:28:23.106Z,8.35
2023-04-11T15:30:52.325Z,4.88
2023-04-11T15:33:24.336Z,7.45
2023-04-11T15:35:53.686Z,7.43
2023-04-11T15:38:22.195Z,4.07
2023-04-11T15:40:51.599Z,3.63
2023-04-11T15:43:19.899Z,4.85
2023-04-11T15:45:48.401Z,4.03
2023-04-11T15:48:17.098Z,4.28
2023-04-11T15:50:46.863Z,3.50
2023-04-11T15:53:14.906Z,4.78
2023-04-11T15:55:44.323Z,2.58
2023-04-11T15:58:12.728Z,2.90
2023-04-11T16:00:43.758Z,3.55
2023-04-11T16:03:12.857Z,2.97
2023-04-11T16:05:43.130Z,4.38
2023-04-11T16:08:13.223Z,3.40
2023-04-11T16:10:41.282Z,3.88
2023-04-11T16:13:09.294Z,5.00
2023-04-11T16:15:37.826Z,5.70
2023-04-11T16:18:06.068Z,4.85
2023-04-11T16:20:34.290Z,5.07
2023-04-11T16:23:02.379Z,4.00
2023-04-11T16:25:32.509Z,11.05
2023-04-11T16:28:00.660Z,6.72
2023-04-11T16:30:28.802Z,5.95
2023-04-11T16:32:57.210Z,4.72
2023-04-11T16:35:25.585Z,8.48
2023-04-11T16:37:54.243Z,8.55
2023-04-11T16:40:22.377Z,6.30
2023-04-11T16:42:51.867Z,8.68
2023-04-11T16:45:20.513Z,7.53
2023-04-11T16:47:48.602Z,10.70
2023-04-11T16:50:17.859Z,5.25
2023-04-11T16:52:46.292Z,7.15
2023-04-11T16:55:15.034Z,8.10
2023-04-11T16:57:43.353Z,9.40
2023-04-11T17:00:20.084Z,8.80
2023-04-11T17:02:48.451Z,6.70
2023-04-11T17:05:18.801Z,7.45
2023-04-11T17:07:47.136Z,7.35
2023-04-11T17:10:15.532Z,5.90
2023-04-11T17:12:43.811Z,6.25
2023-04-11T17:15:13.511Z,10.65
2023-04-11T17:17:41.650Z,5.07
2023-04-11T17:20:11.679Z,6.93
2023-04-11T17:22:43.124Z,6.00
2023-04-11T17:25:11.962Z,4.97
2023-04-11T17:27:41.254Z,8.75
2023-04-11T17:30:10.250Z,7.95
2023-04-11T17:32:39.678Z,8.10
2023-04-11T17:35:08.494Z,4.93
2023-04-11T17:37:37.191Z,11.07
2023-04-11T17:40:11.703Z,9.07
2023-04-11T17:42:40.253Z,8.00
2023-04-11T17:45:16.658Z,12.90
2023-04-11T17:47:48.780Z,7.28
2023-04-11T17:50:17.826Z,5.55
2023-04-11T17:52:47.348Z,8.77
2023-04-11T17:55:18.067Z,9.55
2023-04-11T17:57:47.270Z,7.68
2023-04-11T18:00:19.913Z,15.23
2023-04-11T18:02:50.754Z,11.40
2023-04-11T18:05:24.330Z,8.68
2023-04-11T18:07:56.422Z,7.55
2023-04-11T18:10:26.371Z,6.45
2023-04-11T18:12:56.185Z,6.10
2023-04-11T18:15:25.481Z,8.75
2023-04-11T18:17:55.379Z,11.55
2023-04-11T18:20:23.702Z,5.43
2023-04-11T18:22:56.254Z,5.90
2023-04-11T18:25:24.710Z,7.80
2023-04-11T18:27:52.819Z,5.70
2023-04-11T18:30:21.369Z,6.53
2023-04-11T18:32:51.627Z,6.68
2023-04-11T18:35:21.913Z,7.35
2023-04-11T18:37:50.214Z,5.28
2023-04-11T18:40:18.891Z,7.18
2023-04-11T18:42:51.302Z,10.27
2023-04-11T18:45:21.837Z,7.63
2023-04-11T18:47:51.266Z,13.27
2023-04-11T18:50:21.568Z,13.25
2023-04-11T18:52:54.003Z,12.35
2023-04-11T18:55:24.582Z,7.13
2023-04-11T18:57:56.407Z,11.15
2023-04-11T19:00:26.616Z,12.13
2023-04-11T19:02:54.764Z,15.07
2023-04-11T19:05:25.450Z,16.90
2023-04-11T19:07:54.205Z,14.00
2023-04-11T19:10:22.386Z,11.27
2023-04-11T19:12:50.454Z,10.85
2023-04-11T19:15:18.946Z,7.85
2023-04-11T19:17:47.024Z,7.93
2023-04-11T19:20:16.448Z,7.75
2023-04-11T19:22:46.543Z,12.65
2023-04-11T19:25:15.753Z,12.95
2023-04-11T19:27:44.242Z,10.23
2023-04-11T19:30:13.880Z,9.73
2023-04-11T19:32:43.545Z,9.88
2023-04-11T19:35:12.925Z,7.60
2023-04-11T19:37:41.725Z,8.27
2023-04-11T19:40:13.346Z,7.72
2023-04-11T19:42:41.982Z,8.07
2023-04-11T19:45:11.118Z,6.75
2023-04-11T19:47:40.425Z,7.47
2023-04-11T19:50:11.934Z,7.40
2023-04-11T19:52:40.834Z,4.50
2023-04-11T19:55:14.642Z,5.28
2023-04-11T19:57:43.996Z,4.75
2023-04-11T20:00:14.280Z,6.47
2023-04-11T20:02:47.995Z,9.25
2023-04-11T20:05:18.008Z,8.98
2023-04-11T20:07:46.593Z,6.97
2023-04-11T20:10:17.005Z,8.70
2023-04-11T20:12:45.211Z,11.95
2023-04-11T20:15:13.699Z,10.57
2023-04-11T20:17:42.764Z,14.75
2023-04-11T20:20:13.438Z,13.85
2023-04-11T20:22:41.535Z,11.27
2023-04-11T20:25:11.556Z,12.20
2023-04-11T20:27:42.091Z,11.75
2023-04-11T20:30:12.143Z,11.63
2023-04-11T20:32:41.112Z,13.32
2023-04-11T20:35:11.980Z,12.23
2023-04-11T20:37:41.274Z,11.73
2023-04-11T20:40:11.034Z,9.27
2023-04-11T20:42:42.337Z,8.15
2023-04-11T20:45:12.480Z,22.77
2023-04-11T20:47:41.670Z,10.95
2023-04-11T20:50:14.260Z,10.75
2023-04-11T20:52:43.682Z,14.80
2023-04-11T20:55:12.588Z,15.60
2023-04-11T20:57:42.670Z,8.00
2023-04-11T21:00:14.017Z,8.63
2023-04-11T21:02:44.388Z,9.68
2023-04-11T21:05:13.257Z,10.55
2023-04-11T21:07:42.107Z,12.15
2023-04-11T21:10:12.298Z,13.23
2023-04-11T21:12:42.869Z,14.15
2023-04-11T21:15:11.835Z,12.85
2023-04-11T21:17:40.429Z,17.85
2023-04-11T21:20:17.496Z,12.20
2023-04-11T21:22:46.610Z,11.15
2023-04-11T21:25:15.689Z,12.15
2023-04-11T21:27:45.463Z,13.23
2023-04-11T21:30:14.953Z,14.98
2023-04-11T21:32:43.253Z,15.57
2023-04-11T21:35:12.243Z,12.25
2023-04-11T21:37:40.825Z,11.95
2023-04-11T21:40:09.845Z,14.38
2023-04-11T21:42:38.017Z,13.45
2023-04-11T21:45:09.525Z,10.90
2023-04-11T21:47:37.810Z,13.35
2023-04-11T21:50:06.656Z,11.68
2023-04-11T21:52:35.210Z,9.52
2023-04-11T21:55:03.971Z,11.80
2023-04-11T21:57:34.008Z,10.98
2023-04-11T22:00:02.547Z,12.70
2023-04-11T22:02:41.371Z,13.48
2023-04-11T22:05:10.338Z,12.57
2023-04-11T22:07:47.392Z,12.88
2023-04-11T22:10:23.813Z,13.82
2023-04-11T22:12:54.255Z,11.70
2023-04-11T22:15:24.464Z,15.32
2023-04-11T22:17:54.545Z,10.95
2023-04-11T22:20:22.934Z,13.10
2023-04-11T22:22:51.246Z,11.18
2023-04-11T22:25:22.175Z,16.38
2023-04-11T22:27:54.461Z,11.75
2023-04-11T22:30:24.279Z,9.88
2023-04-11T22:32:55.721Z,11.73
2023-04-11T22:35:25.940Z,13.35
2023-04-11T22:37:55.563Z,11.88
2023-04-11T22:40:23.951Z,9.50
2023-04-11T22:42:52.920Z,11.60
2023-04-11T22:45:22.962Z,10.93
2023-04-11T22:47:54.649Z,16.20
2023-04-11T22:50:25.056Z,14.23
2023-04-11T22:52:54.678Z,7.68
2023-04-11T22:55:24.716Z,15.48
2023-04-11T22:57:53.166Z,11.55
2023-04-11T23:00:21.964Z,8.30
2023-04-11T23:02:51.069Z,11.23
2023-04-11T23:05:20.871Z,11.23
2023-04-11T23:07:51.114Z,13.55
2023-04-11T23:10:19.523Z,13.93
2023-04-11T23:12:49.420Z,9.15
2023-04-11T23:15:18.357Z,10.88
2023-04-11T23:17:46.443Z,9.02
2023-04-11T23:20:14.993Z,12.20
2023-04-11T23:22:43.940Z,8.80
2023-04-11T23:25:15.367Z,11.40
2023-04-11T23:27:44.615Z,11.60
2023-04-11T23:30:14.994Z,7.40
2023-04-11T23:32:43.751Z,7.57
2023-04-11T23:35:11.833Z,9.57
2023-04-11T23:37:40.916Z,7.60
2023-04-11T23:40:14.141Z,7.22
2023-04-11T23:42:43.812Z,7.85
2023-04-11T23:45:14.438Z,12.60
2023-04-11T23:47:42.608Z,7.00
2023-04-11T23:50:12.166Z,8.13
2023-04-11T23:52:40.811Z,6.18
2023-04-11T23:55:09.814Z,4.60
2023-04-11T23:57:38.029Z,9.07
